sensor_id;sensor_type;location;lat;lon;timestamp;temperature;humidity
48806;DHT22;34625;47.176;27.548;2023-05-02T00:02:06;22.10;54.30
48806;DHT22;34625;47.176;27.548;2023-05-02T00:04:32;22.00;54.20
48806;DHT22;34625;47.176;27.548;2023-05-02T00:06:59;22.10;54.20
48806;DHT22;34625;47.176;27.548;2023-05-02T00:09:25;22.10;54.20
48806;DHT22;34625;47.176;27.548;2023-05-02T00:11:51;22.10;54.00
48806;DHT22;34625;47.176;27.548;2023-05-02T00:14:17;22.20;54.00
48806;DHT22;34625;47.176;27.548;2023-05-02T00:16:43;22.10;54.00
48806;DHT22;34625;47.176;27.548;2023-05-02T00:19:09;22.10;54.00
48806;DHT22;34625;47.176;27.548;2023-05-02T00:21:35;22.10;53.90
48806;DHT22;34625;47.176;27.548;2023-05-02T00:24:01;22.00;53.80
48806;DHT22;34625;47.176;27.548;2023-05-02T00:26:27;22.10;53.90
48806;DHT22;34625;47.176;27.548;2023-05-02T00:28:53;22.10;53.80
48806;DHT22;34625;47.176;27.548;2023-05-02T00:31:19;22.00;53.80
48806;DHT22;34625;47.176;27.548;2023-05-02T00:33:45;22.00;53.70
48806;DHT22;34625;47.176;27.548;2023-05-02T00:36:18;22.00;53.70
48806;DHT22;34625;47.176;27.548;2023-05-02T00:38:45;22.00;53.80
48806;DHT22;34625;47.176;27.548;2023-05-02T00:41:11;21.90;53.90
48806;DHT22;34625;47.176;27.548;2023-05-02T00:43:37;22.00;53.90
48806;DHT22;34625;47.176;27.548;2023-05-02T00:46:06;21.90;53.90
48806;DHT22;34625;47.176;27.548;2023-05-02T00:48:33;21.90;53.90
48806;DHT22;34625;47.176;27.548;2023-05-02T00:51:02;21.90;53.90
48806;DHT22;34625;47.176;27.548;2023-05-02T00:53:34;21.80;53.90
48806;DHT22;34625;47.176;27.548;2023-05-02T00:56:01;21.80;53.90
48806;DHT22;34625;47.176;27.548;2023-05-02T00:58:28;21.70;54.00
48806;DHT22;34625;47.176;27.548;2023-05-02T01:06:45;21.80;53.70
48806;DHT22;34625;47.176;27.548;2023-05-02T01:14:30;21.80;53.70
48806;DHT22;34625;47.176;27.548;2023-05-02T01:17:02;21.70;53.60
48806;DHT22;34625;47.176;27.548;2023-05-02T01:19:37;21.80;53.50
48806;DHT22;34625;47.176;27.548;2023-05-02T01:22:06;21.80;53.40
48806;DHT22;34625;47.176;27.548;2023-05-02T01:30:27;21.70;53.40
48806;DHT22;34625;47.176;27.548;2023-05-02T01:32:57;21.60;53.40
48806;DHT22;34625;47.176;27.548;2023-05-02T01:35:25;21.60;53.40
48806;DHT22;34625;47.176;27.548;2023-05-02T01:37:54;21.70;53.50
48806;DHT22;34625;47.176;27.548;2023-05-02T01:40:21;21.70;53.50
48806;DHT22;34625;47.176;27.548;2023-05-02T01:42:50;21.60;53.50
48806;DHT22;34625;47.176;27.548;2023-05-02T01:45:18;21.60;53.50
48806;DHT22;34625;47.176;27.548;2023-05-02T01:47:45;21.60;53.50
48806;DHT22;34625;47.176;27.548;2023-05-02T01:50:13;21.50;53.60
48806;DHT22;34625;47.176;27.548;2023-05-02T01:52:41;21.50;53.60
48806;DHT22;34625;47.176;27.548;2023-05-02T01:55:12;21.50;53.50
48806;DHT22;34625;47.176;27.548;2023-05-02T01:57:41;21.60;53.50
48806;DHT22;34625;47.176;27.548;2023-05-02T02:00:10;21.60;53.40
48806;DHT22;34625;47.176;27.548;2023-05-02T02:02:41;21.50;53.30
48806;DHT22;34625;47.176;27.548;2023-05-02T02:05:09;21.60;53.30
48806;DHT22;34625;47.176;27.548;2023-05-02T02:07:37;21.50;53.20
48806;DHT22;34625;47.176;27.548;2023-05-02T02:10:03;21.70;53.20
48806;DHT22;34625;47.176;27.548;2023-05-02T02:12:51;21.50;53.10
48806;DHT22;34625;47.176;27.548;2023-05-02T02:15:20;21.50;53.10
48806;DHT22;34625;47.176;27.548;2023-05-02T02:17:55;21.70;53.10
48806;DHT22;34625;47.176;27.548;2023-05-02T02:20:22;21.50;53.00
48806;DHT22;34625;47.176;27.548;2023-05-02T02:22:48;21.50;53.00
48806;DHT22;34625;47.176;27.548;2023-05-02T02:25:16;21.50;53.00
48806;DHT22;34625;47.176;27.548;2023-05-02T02:27:43;21.50;53.10
48806;DHT22;34625;47.176;27.548;2023-05-02T02:30:10;21.40;53.00
48806;DHT22;34625;47.176;27.548;2023-05-02T02:32:37;21.50;53.10
48806;DHT22;34625;47.176;27.548;2023-05-02T02:35:04;21.30;53.10
48806;DHT22;34625;47.176;27.548;2023-05-02T02:37:58;21.50;53.10
48806;DHT22;34625;47.176;27.548;2023-05-02T02:40:30;21.30;53.10
48806;DHT22;34625;47.176;27.548;2023-05-02T02:48:14;21.30;53.20
48806;DHT22;34625;47.176;27.548;2023-05-02T02:50:58;21.40;53.10
48806;DHT22;34625;47.176;27.548;2023-05-02T02:53:56;21.30;53.10
48806;DHT22;34625;47.176;27.548;2023-05-02T02:56:29;21.30;53.00
48806;DHT22;34625;47.176;27.548;2023-05-02T02:59:02;21.40;52.90
48806;DHT22;34625;47.176;27.548;2023-05-02T03:01:31;21.40;52.80
48806;DHT22;34625;47.176;27.548;2023-05-02T03:03:58;21.40;52.80
48806;DHT22;34625;47.176;27.548;2023-05-02T03:06:25;21.40;52.70
48806;DHT22;34625;47.176;27.548;2023-05-02T03:08:53;21.40;52.60
48806;DHT22;34625;47.176;27.548;2023-05-02T03:11:25;21.50;52.60
48806;DHT22;34625;47.176;27.548;2023-05-02T03:13:51;21.40;52.50
48806;DHT22;34625;47.176;27.548;2023-05-02T03:16:34;21.60;52.60
48806;DHT22;34625;47.176;27.548;2023-05-02T03:19:04;21.40;52.50
48806;DHT22;34625;47.176;27.548;2023-05-02T03:21:31;21.40;52.60
48806;DHT22;34625;47.176;27.548;2023-05-02T03:24:04;21.40;52.60
48806;DHT22;34625;47.176;27.548;2023-05-02T03:26:30;21.40;52.50
48806;DHT22;34625;47.176;27.548;2023-05-02T03:28:56;21.40;52.50
48806;DHT22;34625;47.176;27.548;2023-05-02T03:31:29;21.40;52.40
48806;DHT22;34625;47.176;27.548;2023-05-02T03:33:56;21.40;52.40
48806;DHT22;34625;47.176;27.548;2023-05-02T03:36:22;21.50;52.50
48806;DHT22;34625;47.176;27.548;2023-05-02T03:38:51;21.50;52.50
48806;DHT22;34625;47.176;27.548;2023-05-02T03:41:17;21.50;52.50
48806;DHT22;34625;47.176;27.548;2023-05-02T03:43:43;21.50;52.50
48806;DHT22;34625;47.176;27.548;2023-05-02T03:46:09;21.40;52.40
48806;DHT22;34625;47.176;27.548;2023-05-02T03:48:40;21.50;52.50
48806;DHT22;34625;47.176;27.548;2023-05-02T03:51:06;21.50;52.50
48806;DHT22;34625;47.176;27.548;2023-05-02T03:53:39;21.70;52.90
48806;DHT22;34625;47.176;27.548;2023-05-02T03:56:06;21.70;52.20
48806;DHT22;34625;47.176;27.548;2023-05-02T03:58:42;21.80;51.60
48806;DHT22;34625;47.176;27.548;2023-05-02T04:01:14;21.90;51.60
48806;DHT22;34625;47.176;27.548;2023-05-02T04:03:42;22.10;52.10
48806;DHT22;34625;47.176;27.548;2023-05-02T04:06:09;22.20;53.00
48806;DHT22;34625;47.176;27.548;2023-05-02T04:08:36;22.40;55.40
48806;DHT22;34625;47.176;27.548;2023-05-02T04:11:02;22.60;54.40
48806;DHT22;34625;47.176;27.548;2023-05-02T04:13:29;22.70;53.70
48806;DHT22;34625;47.176;27.548;2023-05-02T04:15:56;22.80;50.50
48806;DHT22;34625;47.176;27.548;2023-05-02T04:18:27;22.70;49.20
48806;DHT22;34625;47.176;27.548;2023-05-02T04:20:53;22.60;48.00
48806;DHT22;34625;47.176;27.548;2023-05-02T04:23:21;22.60;47.40
48806;DHT22;34625;47.176;27.548;2023-05-02T04:25:51;22.50;46.70
48806;DHT22;34625;47.176;27.548;2023-05-02T04:28:20;22.50;46.70
48806;DHT22;34625;47.176;27.548;2023-05-02T04:30:48;22.40;47.50
48806;DHT22;34625;47.176;27.548;2023-05-02T04:33:15;22.30;48.30
48806;DHT22;34625;47.176;27.548;2023-05-02T04:35:43;22.40;49.00
48806;DHT22;34625;47.176;27.548;2023-05-02T04:38:11;22.20;49.30
48806;DHT22;34625;47.176;27.548;2023-05-02T04:40:37;22.20;49.80
48806;DHT22;34625;47.176;27.548;2023-05-02T04:43:05;22.20;49.80
48806;DHT22;34625;47.176;27.548;2023-05-02T04:45:42;22.30;50.20
48806;DHT22;34625;47.176;27.548;2023-05-02T04:48:14;22.20;50.00
48806;DHT22;34625;47.176;27.548;2023-05-02T04:50:40;22.40;50.10
48806;DHT22;34625;47.176;27.548;2023-05-02T04:53:06;22.40;50.10
48806;DHT22;34625;47.176;27.548;2023-05-02T04:55:33;22.30;50.20
48806;DHT22;34625;47.176;27.548;2023-05-02T04:57:59;22.40;47.30
48806;DHT22;34625;47.176;27.548;2023-05-02T05:00:25;22.40;47.40
48806;DHT22;34625;47.176;27.548;2023-05-02T05:02:51;22.50;49.20
48806;DHT22;34625;47.176;27.548;2023-05-02T05:05:17;22.70;49.30
48806;DHT22;34625;47.176;27.548;2023-05-02T05:07:44;22.70;48.90
48806;DHT22;34625;47.176;27.548;2023-05-02T05:10:11;22.90;47.30
48806;DHT22;34625;47.176;27.548;2023-05-02T05:12:44;22.70;48.00
48806;DHT22;34625;47.176;27.548;2023-05-02T05:15:11;22.80;47.70
48806;DHT22;34625;47.176;27.548;2023-05-02T05:17:38;22.70;46.20
48806;DHT22;34625;47.176;27.548;2023-05-02T05:20:06;22.80;46.50
48806;DHT22;34625;47.176;27.548;2023-05-02T05:22:40;22.70;46.20
48806;DHT22;34625;47.176;27.548;2023-05-02T05:25:08;22.60;47.80
48806;DHT22;34625;47.176;27.548;2023-05-02T05:27:35;22.60;46.70
48806;DHT22;34625;47.176;27.548;2023-05-02T05:30:04;22.70;46.70
48806;DHT22;34625;47.176;27.548;2023-05-02T05:32:32;22.80;45.70
48806;DHT22;34625;47.176;27.548;2023-05-02T05:34:58;22.90;46.70
48806;DHT22;34625;47.176;27.548;2023-05-02T05:37:26;23.00;56.00
48806;DHT22;34625;47.176;27.548;2023-05-02T05:39:53;23.00;53.60
48806;DHT22;34625;47.176;27.548;2023-05-02T05:42:19;23.00;52.90
48806;DHT22;34625;47.176;27.548;2023-05-02T05:44:49;23.00;51.50
48806;DHT22;34625;47.176;27.548;2023-05-02T05:47:19;23.00;52.80
48806;DHT22;34625;47.176;27.548;2023-05-02T05:49:54;23.00;53.50
48806;DHT22;34625;47.176;27.548;2023-05-02T05:52:21;23.00;52.70
48806;DHT22;34625;47.176;27.548;2023-05-02T05:54:48;23.00;52.50
48806;DHT22;34625;47.176;27.548;2023-05-02T05:57:18;23.00;53.60
48806;DHT22;34625;47.176;27.548;2023-05-02T05:59:44;23.00;53.70
48806;DHT22;34625;47.176;27.548;2023-05-02T06:02:10;22.90;52.80
48806;DHT22;34625;47.176;27.548;2023-05-02T06:04:36;22.90;52.50
48806;DHT22;34625;47.176;27.548;2023-05-02T06:07:02;22.80;50.50
48806;DHT22;34625;47.176;27.548;2023-05-02T06:09:28;22.80;53.20
48806;DHT22;34625;47.176;27.548;2023-05-02T06:11:55;22.90;53.90
48806;DHT22;34625;47.176;27.548;2023-05-02T06:14:21;23.00;54.10
48806;DHT22;34625;47.176;27.548;2023-05-02T06:16:48;22.90;53.60
48806;DHT22;34625;47.176;27.548;2023-05-02T06:19:14;22.90;54.10
48806;DHT22;34625;47.176;27.548;2023-05-02T06:21:40;22.90;54.60
48806;DHT22;34625;47.176;27.548;2023-05-02T06:24:06;23.00;53.90
48806;DHT22;34625;47.176;27.548;2023-05-02T06:26:32;22.90;53.70
48806;DHT22;34625;47.176;27.548;2023-05-02T06:28:58;23.10;54.20
48806;DHT22;34625;47.176;27.548;2023-05-02T06:31:24;23.10;53.90
48806;DHT22;34625;47.176;27.548;2023-05-02T06:33:50;23.10;53.80
48806;DHT22;34625;47.176;27.548;2023-05-02T06:36:17;23.20;53.80
48806;DHT22;34625;47.176;27.548;2023-05-02T06:38:43;23.00;53.00
48806;DHT22;34625;47.176;27.548;2023-05-02T06:41:12;23.10;55.00
48806;DHT22;34625;47.176;27.548;2023-05-02T06:43:39;23.20;54.00
48806;DHT22;34625;47.176;27.548;2023-05-02T06:46:07;23.10;54.10
48806;DHT22;34625;47.176;27.548;2023-05-02T06:48:36;23.30;52.80
48806;DHT22;34625;47.176;27.548;2023-05-02T06:51:02;23.20;53.80
48806;DHT22;34625;47.176;27.548;2023-05-02T06:53:30;23.30;50.40
48806;DHT22;34625;47.176;27.548;2023-05-02T06:55:56;23.20;53.20
48806;DHT22;34625;47.176;27.548;2023-05-02T06:58:23;23.20;52.30
48806;DHT22;34625;47.176;27.548;2023-05-02T07:00:49;23.20;50.30
48806;DHT22;34625;47.176;27.548;2023-05-02T07:03:15;23.20;53.80
48806;DHT22;34625;47.176;27.548;2023-05-02T07:05:41;23.30;49.60
48806;DHT22;34625;47.176;27.548;2023-05-02T07:08:07;23.30;51.30
48806;DHT22;34625;47.176;27.548;2023-05-02T07:10:34;23.20;51.20
48806;DHT22;34625;47.176;27.548;2023-05-02T07:12:59;23.40;50.00
48806;DHT22;34625;47.176;27.548;2023-05-02T07:15:26;23.40;48.70
48806;DHT22;34625;47.176;27.548;2023-05-02T07:17:52;23.60;49.10
48806;DHT22;34625;47.176;27.548;2023-05-02T07:20:18;23.60;49.40
48806;DHT22;34625;47.176;27.548;2023-05-02T07:22:44;23.70;51.70
48806;DHT22;34625;47.176;27.548;2023-05-02T07:25:10;23.70;49.80
48806;DHT22;34625;47.176;27.548;2023-05-02T07:27:36;23.70;48.10
48806;DHT22;34625;47.176;27.548;2023-05-02T07:30:03;23.70;48.10
48806;DHT22;34625;47.176;27.548;2023-05-02T07:32:30;23.70;47.00
48806;DHT22;34625;47.176;27.548;2023-05-02T07:34:56;23.70;47.00
48806;DHT22;34625;47.176;27.548;2023-05-02T07:37:22;23.70;47.90
48806;DHT22;34625;47.176;27.548;2023-05-02T07:39:48;23.70;47.50
48806;DHT22;34625;47.176;27.548;2023-05-02T07:42:14;23.90;50.30
48806;DHT22;34625;47.176;27.548;2023-05-02T07:44:40;24.00;51.70
48806;DHT22;34625;47.176;27.548;2023-05-02T07:47:07;23.90;44.60
48806;DHT22;34625;47.176;27.548;2023-05-02T07:49:33;24.10;44.60
48806;DHT22;34625;47.176;27.548;2023-05-02T07:51:59;24.10;42.30
48806;DHT22;34625;47.176;27.548;2023-05-02T07:54:25;24.00;41.00
48806;DHT22;34625;47.176;27.548;2023-05-02T07:56:52;23.90;41.30
48806;DHT22;34625;47.176;27.548;2023-05-02T07:59:18;24.00;41.10
48806;DHT22;34625;47.176;27.548;2023-05-02T08:01:44;23.90;41.00
48806;DHT22;34625;47.176;27.548;2023-05-02T08:04:10;23.90;41.70
48806;DHT22;34625;47.176;27.548;2023-05-02T08:06:37;23.90;40.80
48806;DHT22;34625;47.176;27.548;2023-05-02T08:09:03;23.80;43.00
48806;DHT22;34625;47.176;27.548;2023-05-02T08:11:29;24.00;43.00
48806;DHT22;34625;47.176;27.548;2023-05-02T08:13:55;23.90;42.20
48806;DHT22;34625;47.176;27.548;2023-05-02T08:16:21;23.80;42.90
48806;DHT22;34625;47.176;27.548;2023-05-02T08:18:47;23.90;51.10
48806;DHT22;34625;47.176;27.548;2023-05-02T08:21:13;23.90;49.50
48806;DHT22;34625;47.176;27.548;2023-05-02T08:23:40;23.70;50.40
48806;DHT22;34625;47.176;27.548;2023-05-02T08:26:06;23.70;53.80
48806;DHT22;34625;47.176;27.548;2023-05-02T08:28:35;23.70;52.50
48806;DHT22;34625;47.176;27.548;2023-05-02T08:31:01;23.60;52.90
48806;DHT22;34625;47.176;27.548;2023-05-02T08:33:27;23.70;52.90
48806;DHT22;34625;47.176;27.548;2023-05-02T08:35:53;23.70;52.80
48806;DHT22;34625;47.176;27.548;2023-05-02T08:38:19;23.70;52.70
48806;DHT22;34625;47.176;27.548;2023-05-02T08:40:45;23.60;52.50
48806;DHT22;34625;47.176;27.548;2023-05-02T08:43:11;23.60;52.80
48806;DHT22;34625;47.176;27.548;2023-05-02T08:45:43;23.60;53.00
48806;DHT22;34625;47.176;27.548;2023-05-02T08:48:11;23.60;52.20
48806;DHT22;34625;47.176;27.548;2023-05-02T08:50:41;23.60;52.60
48806;DHT22;34625;47.176;27.548;2023-05-02T08:53:10;23.60;52.70
48806;DHT22;34625;47.176;27.548;2023-05-02T08:55:38;23.70;48.40
48806;DHT22;34625;47.176;27.548;2023-05-02T08:58:07;23.80;46.10
48806;DHT22;34625;47.176;27.548;2023-05-02T09:00:38;23.80;52.20
48806;DHT22;34625;47.176;27.548;2023-05-02T09:05:52;23.90;53.00
48806;DHT22;34625;47.176;27.548;2023-05-02T09:08:22;23.90;52.60
48806;DHT22;34625;47.176;27.548;2023-05-02T09:10:49;23.90;51.90
48806;DHT22;34625;47.176;27.548;2023-05-02T09:13:42;23.90;52.60
48806;DHT22;34625;47.176;27.548;2023-05-02T09:16:10;23.80;52.50
48806;DHT22;34625;47.176;27.548;2023-05-02T09:18:39;23.80;48.00
48806;DHT22;34625;47.176;27.548;2023-05-02T09:21:13;23.70;51.90
48806;DHT22;34625;47.176;27.548;2023-05-02T09:23:42;23.70;45.20
48806;DHT22;34625;47.176;27.548;2023-05-02T09:26:16;23.70;45.30
48806;DHT22;34625;47.176;27.548;2023-05-02T09:31:17;24.00;52.70
48806;DHT22;34625;47.176;27.548;2023-05-02T09:33:44;24.50;50.00
48806;DHT22;34625;47.176;27.548;2023-05-02T09:36:13;24.50;45.70
48806;DHT22;34625;47.176;27.548;2023-05-02T09:38:43;24.40;43.40
48806;DHT22;34625;47.176;27.548;2023-05-02T09:41:10;24.30;46.50
48806;DHT22;34625;47.176;27.548;2023-05-02T09:43:37;24.20;47.10
48806;DHT22;34625;47.176;27.548;2023-05-02T09:46:08;24.20;49.90
48806;DHT22;34625;47.176;27.548;2023-05-02T09:48:55;24.20;54.00
48806;DHT22;34625;47.176;27.548;2023-05-02T09:51:25;24.30;53.60
48806;DHT22;34625;47.176;27.548;2023-05-02T09:53:51;24.70;55.90
48806;DHT22;34625;47.176;27.548;2023-05-02T09:56:17;25.00;53.80
48806;DHT22;34625;47.176;27.548;2023-05-02T09:58:44;25.30;54.00
48806;DHT22;34625;47.176;27.548;2023-05-02T10:01:17;25.30;41.90
48806;DHT22;34625;47.176;27.548;2023-05-02T10:03:46;25.30;40.60
48806;DHT22;34625;47.176;27.548;2023-05-02T10:06:14;25.00;38.50
48806;DHT22;34625;47.176;27.548;2023-05-02T10:08:41;24.90;48.70
48806;DHT22;34625;47.176;27.548;2023-05-02T10:11:11;24.90;51.00
48806;DHT22;34625;47.176;27.548;2023-05-02T10:13:39;24.70;51.50
48806;DHT22;34625;47.176;27.548;2023-05-02T10:16:08;24.80;51.80
48806;DHT22;34625;47.176;27.548;2023-05-02T10:18:51;24.70;51.90
48806;DHT22;34625;47.176;27.548;2023-05-02T10:21:24;24.70;51.90
48806;DHT22;34625;47.176;27.548;2023-05-02T10:23:52;24.60;51.90
48806;DHT22;34625;47.176;27.548;2023-05-02T10:26:19;24.60;46.30
48806;DHT22;34625;47.176;27.548;2023-05-02T10:28:51;24.60;51.90
48806;DHT22;34625;47.176;27.548;2023-05-02T10:31:18;24.70;52.50
48806;DHT22;34625;47.176;27.548;2023-05-02T10:33:46;24.60;52.50
48806;DHT22;34625;47.176;27.548;2023-05-02T10:36:22;24.60;52.50
48806;DHT22;34625;47.176;27.548;2023-05-02T10:38:49;24.70;52.70
48806;DHT22;34625;47.176;27.548;2023-05-02T10:41:19;24.60;52.70
48806;DHT22;34625;47.176;27.548;2023-05-02T10:43:48;24.50;52.70
48806;DHT22;34625;47.176;27.548;2023-05-02T10:46:35;24.50;52.80
48806;DHT22;34625;47.176;27.548;2023-05-02T10:49:10;24.60;52.20
48806;DHT22;34625;47.176;27.548;2023-05-02T10:51:38;24.60;52.40
48806;DHT22;34625;47.176;27.548;2023-05-02T10:57:02;24.60;52.70
48806;DHT22;34625;47.176;27.548;2023-05-02T10:59:40;24.50;52.60
48806;DHT22;34625;47.176;27.548;2023-05-02T11:05:07;24.50;52.20
48806;DHT22;34625;47.176;27.548;2023-05-02T11:07:36;24.50;52.00
48806;DHT22;34625;47.176;27.548;2023-05-02T11:18:13;24.50;51.90
48806;DHT22;34625;47.176;27.548;2023-05-02T11:20:41;24.50;51.80
48806;DHT22;34625;47.176;27.548;2023-05-02T11:25:54;24.40;50.60
48806;DHT22;34625;47.176;27.548;2023-05-02T11:30:59;24.40;51.30
48806;DHT22;34625;47.176;27.548;2023-05-02T11:33:27;24.50;54.50
48806;DHT22;34625;47.176;27.548;2023-05-02T11:35:54;24.50;56.40
48806;DHT22;34625;47.176;27.548;2023-05-02T11:38:23;24.40;56.10
48806;DHT22;34625;47.176;27.548;2023-05-02T11:40:57;24.50;55.90
48806;DHT22;34625;47.176;27.548;2023-05-02T11:43:25;24.40;54.50
48806;DHT22;34625;47.176;27.548;2023-05-02T11:45:56;24.40;52.90
48806;DHT22;34625;47.176;27.548;2023-05-02T11:48:24;24.30;53.60
48806;DHT22;34625;47.176;27.548;2023-05-02T11:50:59;24.50;53.30
48806;DHT22;34625;47.176;27.548;2023-05-02T11:53:28;24.40;52.20
48806;DHT22;34625;47.176;27.548;2023-05-02T11:55:59;24.50;52.80
48806;DHT22;34625;47.176;27.548;2023-05-02T11:58:27;24.40;53.10
48806;DHT22;34625;47.176;27.548;2023-05-02T12:00:55;24.40;53.20
48806;DHT22;34625;47.176;27.548;2023-05-02T12:05:53;24.40;52.20
48806;DHT22;34625;47.176;27.548;2023-05-02T12:08:28;24.50;50.90
48806;DHT22;34625;47.176;27.548;2023-05-02T12:10:56;24.50;52.60
48806;DHT22;34625;47.176;27.548;2023-05-02T12:13:24;24.40;50.60
48806;DHT22;34625;47.176;27.548;2023-05-02T12:15:52;24.50;52.80
48806;DHT22;34625;47.176;27.548;2023-05-02T12:18:21;24.40;52.70
48806;DHT22;34625;47.176;27.548;2023-05-02T12:20:52;24.50;53.00
48806;DHT22;34625;47.176;27.548;2023-05-02T12:23:23;24.50;52.80
48806;DHT22;34625;47.176;27.548;2023-05-02T12:25:49;24.30;49.40
48806;DHT22;34625;47.176;27.548;2023-05-02T12:28:18;24.40;46.50
48806;DHT22;34625;47.176;27.548;2023-05-02T12:30:47;24.40;51.80
48806;DHT22;34625;47.176;27.548;2023-05-02T12:33:15;24.40;44.20
48806;DHT22;34625;47.176;27.548;2023-05-02T12:35:42;24.50;52.00
48806;DHT22;34625;47.176;27.548;2023-05-02T12:38:16;24.30;51.90
48806;DHT22;34625;47.176;27.548;2023-05-02T12:41:01;24.20;52.00
48806;DHT22;34625;47.176;27.548;2023-05-02T12:43:44;24.30;50.40
48806;DHT22;34625;47.176;27.548;2023-05-02T12:46:10;24.40;50.60
48806;DHT22;34625;47.176;27.548;2023-05-02T12:48:36;24.30;51.80
48806;DHT22;34625;47.176;27.548;2023-05-02T12:51:03;24.30;51.60
48806;DHT22;34625;47.176;27.548;2023-05-02T12:53:40;24.30;51.40
48806;DHT22;34625;47.176;27.548;2023-05-02T12:56:06;24.40;50.50
48806;DHT22;34625;47.176;27.548;2023-05-02T12:58:48;24.30;51.40
48806;DHT22;34625;47.176;27.548;2023-05-02T13:01:14;24.30;52.00
48806;DHT22;34625;47.176;27.548;2023-05-02T13:03:42;24.30;48.80
48806;DHT22;34625;47.176;27.548;2023-05-02T13:06:08;24.30;46.80
48806;DHT22;34625;47.176;27.548;2023-05-02T13:08:36;24.20;50.60
48806;DHT22;34625;47.176;27.548;2023-05-02T13:11:02;24.30;52.10
48806;DHT22;34625;47.176;27.548;2023-05-02T13:13:29;24.20;52.20
48806;DHT22;34625;47.176;27.548;2023-05-02T13:15:55;24.30;52.40
48806;DHT22;34625;47.176;27.548;2023-05-02T13:18:21;24.30;51.60
48806;DHT22;34625;47.176;27.548;2023-05-02T13:20:47;24.10;49.30
48806;DHT22;34625;47.176;27.548;2023-05-02T13:23:13;24.10;51.20
48806;DHT22;34625;47.176;27.548;2023-05-02T13:25:41;24.30;50.90
48806;DHT22;34625;47.176;27.548;2023-05-02T13:28:07;24.10;49.90
48806;DHT22;34625;47.176;27.548;2023-05-02T13:30:33;24.20;50.80
48806;DHT22;34625;47.176;27.548;2023-05-02T13:32:59;24.20;50.90
48806;DHT22;34625;47.176;27.548;2023-05-02T13:35:25;24.30;50.80
48806;DHT22;34625;47.176;27.548;2023-05-02T13:37:51;24.10;51.20
48806;DHT22;34625;47.176;27.548;2023-05-02T13:40:17;24.10;50.70
48806;DHT22;34625;47.176;27.548;2023-05-02T13:42:44;24.20;49.90
48806;DHT22;34625;47.176;27.548;2023-05-02T13:45:10;24.20;51.70
48806;DHT22;34625;47.176;27.548;2023-05-02T13:47:37;24.10;51.80
48806;DHT22;34625;47.176;27.548;2023-05-02T13:50:03;24.30;50.20
48806;DHT22;34625;47.176;27.548;2023-05-02T13:52:29;24.40;51.70
48806;DHT22;34625;47.176;27.548;2023-05-02T13:54:55;24.30;50.70
48806;DHT22;34625;47.176;27.548;2023-05-02T13:57:21;24.20;50.10
48806;DHT22;34625;47.176;27.548;2023-05-02T13:59:47;24.30;51.60
48806;DHT22;34625;47.176;27.548;2023-05-02T14:02:13;24.10;49.10
48806;DHT22;34625;47.176;27.548;2023-05-02T14:04:40;24.00;49.60
48806;DHT22;34625;47.176;27.548;2023-05-02T14:07:06;24.30;51.70
48806;DHT22;34625;47.176;27.548;2023-05-02T14:09:32;24.20;51.70
48806;DHT22;34625;47.176;27.548;2023-05-02T14:11:57;24.30;51.80
48806;DHT22;34625;47.176;27.548;2023-05-02T14:14:24;24.30;50.20
48806;DHT22;34625;47.176;27.548;2023-05-02T14:16:50;24.10;51.00
48806;DHT22;34625;47.176;27.548;2023-05-02T14:19:16;24.20;51.70
48806;DHT22;34625;47.176;27.548;2023-05-02T14:21:42;24.20;51.70
48806;DHT22;34625;47.176;27.548;2023-05-02T14:24:08;24.10;51.40
48806;DHT22;34625;47.176;27.548;2023-05-02T14:26:36;24.10;50.80
48806;DHT22;34625;47.176;27.548;2023-05-02T14:29:03;24.00;51.20
48806;DHT22;34625;47.176;27.548;2023-05-02T14:31:29;24.10;51.40
48806;DHT22;34625;47.176;27.548;2023-05-02T14:33:55;24.10;51.90
48806;DHT22;34625;47.176;27.548;2023-05-02T14:36:21;24.10;51.60
48806;DHT22;34625;47.176;27.548;2023-05-02T14:38:47;24.10;48.10
48806;DHT22;34625;47.176;27.548;2023-05-02T14:41:13;24.00;50.50
48806;DHT22;34625;47.176;27.548;2023-05-02T14:43:39;23.90;51.10
48806;DHT22;34625;47.176;27.548;2023-05-02T14:46:05;24.10;49.50
48806;DHT22;34625;47.176;27.548;2023-05-02T14:48:34;23.90;49.20
48806;DHT22;34625;47.176;27.548;2023-05-02T14:51:03;24.20;47.80
48806;DHT22;34625;47.176;27.548;2023-05-02T14:53:30;24.20;46.60
48806;DHT22;34625;47.176;27.548;2023-05-02T14:55:56;24.20;50.30
48806;DHT22;34625;47.176;27.548;2023-05-02T14:58:22;24.50;48.20
48806;DHT22;34625;47.176;27.548;2023-05-02T15:00:48;24.60;48.70
48806;DHT22;34625;47.176;27.548;2023-05-02T15:03:14;24.50;41.70
48806;DHT22;34625;47.176;27.548;2023-05-02T15:05:40;24.40;40.40
48806;DHT22;34625;47.176;27.548;2023-05-02T15:08:06;24.50;50.10
48806;DHT22;34625;47.176;27.548;2023-05-02T15:10:38;24.40;50.50
48806;DHT22;34625;47.176;27.548;2023-05-02T15:13:05;24.40;48.60
48806;DHT22;34625;47.176;27.548;2023-05-02T15:15:31;24.40;51.10
48806;DHT22;34625;47.176;27.548;2023-05-02T15:17:57;24.40;51.80
48806;DHT22;34625;47.176;27.548;2023-05-02T15:20:23;24.40;51.70
48806;DHT22;34625;47.176;27.548;2023-05-02T15:22:50;24.30;50.30
48806;DHT22;34625;47.176;27.548;2023-05-02T15:25:16;24.40;52.10
48806;DHT22;34625;47.176;27.548;2023-05-02T15:27:42;24.40;50.30
48806;DHT22;34625;47.176;27.548;2023-05-02T15:30:09;24.40;51.80
48806;DHT22;34625;47.176;27.548;2023-05-02T15:32:35;24.50;50.00
48806;DHT22;34625;47.176;27.548;2023-05-02T15:35:01;24.40;42.90
48806;DHT22;34625;47.176;27.548;2023-05-02T15:37:28;24.40;48.00
48806;DHT22;34625;47.176;27.548;2023-05-02T15:39:55;24.40;51.10
48806;DHT22;34625;47.176;27.548;2023-05-02T15:42:20;24.40;50.80
48806;DHT22;34625;47.176;27.548;2023-05-02T15:44:47;24.50;50.80
48806;DHT22;34625;47.176;27.548;2023-05-02T15:47:13;24.40;46.10
48806;DHT22;34625;47.176;27.548;2023-05-02T15:49:39;24.40;48.60
48806;DHT22;34625;47.176;27.548;2023-05-02T15:52:05;24.30;48.30
48806;DHT22;34625;47.176;27.548;2023-05-02T15:54:31;24.40;47.70
48806;DHT22;34625;47.176;27.548;2023-05-02T15:56:57;24.20;46.10
48806;DHT22;34625;47.176;27.548;2023-05-02T15:59:23;24.30;48.40
48806;DHT22;34625;47.176;27.548;2023-05-02T16:01:49;24.20;48.00
48806;DHT22;34625;47.176;27.548;2023-05-02T16:04:15;24.20;42.80
48806;DHT22;34625;47.176;27.548;2023-05-02T16:06:41;24.10;45.70
48806;DHT22;34625;47.176;27.548;2023-05-02T16:09:07;24.10;48.30
48806;DHT22;34625;47.176;27.548;2023-05-02T16:11:34;24.10;46.10